createdAt,value
2023-05-06T00:04:10.305Z,101661.95
2023-05-06T00:06:37.490Z,101662.65
2023-05-06T00:09:04.853Z,101664.65
2023-05-06T00:11:31.790Z,101664.06
2023-05-06T00:13:58.994Z,101659.80
2023-05-06T00:16:26.456Z,101655.94
2023-05-06T00:18:53.495Z,101657.69
2023-05-06T00:21:20.731Z,101653.34
2023-05-06T00:23:49.857Z,101655.11
2023-05-06T00:26:16.996Z,101653.19
2023-05-06T00:28:44.272Z,101655.80
2023-05-06T00:31:14.897Z,101658.42
2023-05-06T00:33:42.327Z,101658.56
2023-05-06T00:36:09.430Z,101659.79
2023-05-06T00:38:36.448Z,101661.69
2023-05-06T00:41:03.923Z,101656.14
2023-05-06T00:43:30.993Z,101654.02
2023-05-06T00:45:58.219Z,101654.02
2023-05-06T00:48:25.178Z,101650.94
2023-05-06T00:50:52.639Z,101654.59
2023-05-06T00:53:26.425Z,101654.91
2023-05-06T00:55:53.843Z,101654.75
2023-05-06T00:58:20.979Z,101660.14
2023-05-06T01:00:51.723Z,101659.96
2023-05-06T01:03:18.987Z,101660.48
2023-05-06T01:06:16.713Z,101652.95
2023-05-06T01:09:11.254Z,101648.16
2023-05-06T01:11:43.978Z,101647.63
2023-05-06T01:14:35.273Z,101648.16
2023-05-06T01:17:10.948Z,101646.54
2023-05-06T01:19:49.264Z,101644.40
2023-05-06T01:22:18.176Z,101643.35
2023-05-06T01:24:46.728Z,101640.54
2023-05-06T01:27:16.318Z,101644.69
2023-05-06T01:29:45.359Z,101644.69
2023-05-06T01:32:18.457Z,101640.98
2023-05-06T01:35:02.091Z,101639.78
2023-05-06T01:37:44.960Z,101641.77
2023-05-06T01:40:16.508Z,101637.36
2023-05-06T01:42:48.870Z,101633.63
2023-05-06T01:45:19.560Z,101631.33
2023-05-06T01:47:47.376Z,101625.36
2023-05-06T01:50:15.317Z,101621.33
2023-05-06T01:52:42.233Z,101618.40
2023-05-06T01:55:09.628Z,101617.16
2023-05-06T01:57:37.010Z,101616.09
2023-05-06T02:00:04.631Z,101619.03
2023-05-06T02:02:31.663Z,101612.20
2023-05-06T02:04:58.525Z,101612.55
2023-05-06T02:07:25.576Z,101612.04
2023-05-06T02:09:52.773Z,101609.16
2023-05-06T02:12:19.929Z,101605.38
2023-05-06T02:14:46.978Z,101601.72
2023-05-06T02:17:14.539Z,101603.08
2023-05-06T02:19:41.812Z,101606.59
2023-05-06T02:22:08.793Z,101607.40
2023-05-06T02:24:36.048Z,101603.82
2023-05-06T02:27:03.867Z,101605.48
2023-05-06T02:29:31.023Z,101610.67
2023-05-06T02:31:58.333Z,101609.66
2023-05-06T02:34:25.607Z,101607.16
2023-05-06T02:36:52.621Z,101607.02
2023-05-06T02:39:19.865Z,101605.12
2023-05-06T02:41:46.884Z,101601.47
2023-05-06T02:44:13.593Z,101601.76
2023-05-06T02:46:40.648Z,101599.61
2023-05-06T02:49:07.697Z,101594.84
2023-05-06T02:51:35.001Z,101597.12
2023-05-06T02:54:02.399Z,101592.88
2023-05-06T02:56:29.610Z,101597.41
2023-05-06T02:58:56.573Z,101603.23
2023-05-06T03:01:23.844Z,101601.45
2023-05-06T03:03:53.878Z,101601.84
2023-05-06T03:06:20.820Z,101599.86
2023-05-06T03:08:47.887Z,101600.10
2023-05-06T03:11:17.810Z,101597.14
2023-05-06T03:13:45.425Z,101594.87
2023-05-06T03:16:15.440Z,101592.20
2023-05-06T03:18:42.628Z,101594.35
2023-05-06T03:21:10.615Z,101591.85
2023-05-06T03:23:37.936Z,101592.19
2023-05-06T03:26:04.956Z,101591.14
2023-05-06T03:28:32.082Z,101593.60
2023-05-06T03:30:59.530Z,101590.30
2023-05-06T03:33:26.606Z,101595.34
2023-05-06T03:35:53.792Z,101595.94
2023-05-06T03:38:21.132Z,101592.64
2023-05-06T03:40:48.323Z,101594.66
2023-05-06T03:43:16.710Z,101594.80
2023-05-06T03:45:43.827Z,101594.73
2023-05-06T03:48:11.027Z,101589.30
2023-05-06T03:50:38.731Z,101588.63
2023-05-06T03:53:05.970Z,101588.27
2023-05-06T03:55:33.388Z,101592.12
2023-05-06T03:58:01.506Z,101594.06
2023-05-06T04:00:28.553Z,101598.77
2023-05-06T04:02:55.769Z,101594.75
2023-05-06T04:05:23.009Z,101594.77
2023-05-06T04:07:50.176Z,101591.61
2023-05-06T04:10:17.376Z,101595.73
2023-05-06T04:12:44.599Z,101592.55
2023-05-06T04:15:12.058Z,101590.63
2023-05-06T04:17:39.439Z,101591.35
2023-05-06T04:20:07.373Z,101593.23
2023-05-06T04:22:34.512Z,101593.23
2023-05-06T04:25:01.505Z,101591.77
2023-05-06T04:27:29.590Z,101592.73
2023-05-06T04:29:56.751Z,101593.04
2023-05-06T04:32:24.846Z,101588.89
2023-05-06T04:34:56.654Z,101585.34
2023-05-06T04:37:23.853Z,101581.88
2023-05-06T04:39:51.237Z,101579.35
2023-05-06T04:42:18.274Z,101579.88
2023-05-06T04:44:45.436Z,101577.77
2023-05-06T04:47:12.546Z,101580.50
2023-05-06T04:49:39.724Z,101578.80
2023-05-06T04:52:06.922Z,101578.73
2023-05-06T04:54:33.877Z,101578.58
2023-05-06T04:57:02.017Z,101579.02
2023-05-06T04:59:29.130Z,101575.32
2023-05-06T05:01:56.162Z,101570.02
2023-05-06T05:04:23.559Z,101562.47
2023-05-06T05:06:50.666Z,101557.89
2023-05-06T05:09:18.177Z,101555.29
2023-05-06T05:11:45.335Z,101554.66
2023-05-06T05:14:12.385Z,101550.39
2023-05-06T05:16:39.600Z,101555.85
2023-05-06T05:19:09.060Z,101555.21
2023-05-06T05:21:36.709Z,101553.93
2023-05-06T05:24:04.190Z,101553.77
2023-05-06T05:26:31.312Z,101557.65
2023-05-06T05:28:58.446Z,101563.34
2023-05-06T05:31:25.834Z,101561.66
2023-05-06T05:33:52.765Z,101563.78
2023-05-06T05:36:20.660Z,101559.53
2023-05-06T05:38:47.841Z,101561.60
2023-05-06T05:41:17.289Z,101563.17
2023-05-06T05:43:44.693Z,101564.79
2023-05-06T05:46:14.108Z,101563.72
2023-05-06T05:48:41.817Z,101564.85
2023-05-06T05:51:11.024Z,101560.30
2023-05-06T05:53:39.403Z,101559.10
2023-05-06T05:56:06.960Z,101555.95
2023-05-06T05:58:34.482Z,101549.23
2023-05-06T06:01:01.709Z,101547.83
2023-05-06T06:03:29.177Z,101540.41
2023-05-06T06:05:59.437Z,101534.10
2023-05-06T06:08:26.769Z,101538.48
2023-05-06T06:10:54.203Z,101534.81
2023-05-06T06:13:21.633Z,101539.83
2023-05-06T06:15:55.655Z,101539.14
2023-05-06T06:18:23.064Z,101543.41
2023-05-06T06:20:53.125Z,101546.05
2023-05-06T06:23:21.381Z,101554.02
2023-05-06T06:25:50.522Z,101556.98
2023-05-06T06:28:22.760Z,101564.32
2023-05-06T06:30:50.208Z,101565.61
2023-05-06T06:33:17.313Z,101566.50
2023-05-06T06:35:44.412Z,101566.55
2023-05-06T06:38:11.479Z,101568.42
2023-05-06T06:40:38.916Z,101571.33
2023-05-06T06:43:06.082Z,101574.91
2023-05-06T06:45:33.071Z,101575.22
2023-05-06T06:48:00.384Z,101574.23
2023-05-06T06:50:27.882Z,101577.36
2023-05-06T06:52:54.849Z,101576.39
2023-05-06T06:55:22.204Z,101574.61
2023-05-06T06:57:49.868Z,101575.47
2023-05-06T07:00:17.001Z,101576.70
2023-05-06T07:02:43.858Z,101577.39
2023-05-06T07:05:11.448Z,101578.50
2023-05-06T07:07:38.761Z,101578.17
2023-05-06T07:10:07.206Z,101579.20
2023-05-06T07:12:34.295Z,101572.13
2023-05-06T07:15:04.506Z,101579.96
2023-05-06T07:17:31.552Z,101572.54
2023-05-06T07:19:59.053Z,101573.08
2023-05-06T07:22:27.731Z,101570.34
2023-05-06T07:24:54.905Z,101567.69
2023-05-06T07:27:21.896Z,101560.21
2023-05-06T07:29:56.392Z,101558.59
2023-05-06T07:32:23.536Z,101555.31
2023-05-06T07:34:50.382Z,101554.20
2023-05-06T07:37:17.228Z,101549.87
2023-05-06T07:39:44.488Z,101548.61
2023-05-06T07:42:12.769Z,101551.27
2023-05-06T07:44:40.046Z,101546.77
2023-05-06T07:47:07.936Z,101545.45
2023-05-06T07:49:35.379Z,101548.14
2023-05-06T07:52:03.739Z,101547.50
2023-05-06T07:54:31.554Z,101547.05
2023-05-06T07:56:58.993Z,101546.64
2023-05-06T07:59:26.436Z,101545.67
2023-05-06T08:01:53.674Z,101546.16
2023-05-06T08:04:21.122Z,101541.42
2023-05-06T08:06:48.176Z,101535.89
2023-05-06T08:09:22.694Z,101536.33
2023-05-06T08:11:56.015Z,101536.33
2023-05-06T08:14:24.404Z,101540.24
2023-05-06T08:16:52.032Z,101538.59
2023-05-06T08:19:19.205Z,101542.92
2023-05-06T08:21:46.563Z,101537.42
2023-05-06T08:24:14.260Z,101541.95
2023-05-06T08:26:41.836Z,101537.02
2023-05-06T08:29:08.992Z,101543.29
2023-05-06T08:31:36.187Z,101539.65
2023-05-06T08:34:03.329Z,101540.88
2023-05-06T08:36:30.682Z,101539.95
2023-05-06T08:38:57.791Z,101544.99
2023-05-06T08:41:26.279Z,101546.90
2023-05-06T08:43:54.640Z,101546.18
2023-05-06T08:46:22.707Z,101551.89
2023-05-06T08:48:49.933Z,101551.56
2023-05-06T08:51:18.430Z,101556.88
2023-05-06T08:53:48.870Z,101559.17
2023-05-06T08:56:17.017Z,101559.32
2023-05-06T08:58:52.016Z,101564.11
2023-05-06T09:03:26.358Z,101577.13
2023-05-06T09:05:57.619Z,101577.73
2023-05-06T09:08:27.635Z,101582.88
2023-05-06T09:10:57.908Z,101590.34
2023-05-06T09:13:26.268Z,101592.70
2023-05-06T09:15:55.744Z,101599.94
2023-05-06T09:18:26.495Z,101601.34
2023-05-06T09:20:56.246Z,101598.57
2023-05-06T09:23:25.343Z,101596.86
2023-05-06T09:25:53.654Z,101592.88
2023-05-06T09:28:22.672Z,101591.28
2023-05-06T09:30:52.329Z,101591.53
2023-05-06T09:33:22.156Z,101591.64
2023-05-06T09:35:52.351Z,101587.87
2023-05-06T09:38:22.864Z,101586.33
2023-05-06T09:40:53.045Z,101580.10
2023-05-06T09:43:25.364Z,101579.39
2023-05-06T09:45:54.979Z,101581.31
2023-05-06T09:48:31.119Z,101575.10
2023-05-06T09:51:01.287Z,101574.37
2023-05-06T09:53:31.700Z,101575.08
2023-05-06T09:56:04.109Z,101575.83
2023-05-06T09:58:36.747Z,101574.48
2023-05-06T10:01:07.915Z,101574.54
2023-05-06T10:03:36.711Z,101577.16
2023-05-06T10:06:08.929Z,101573.98
2023-05-06T10:08:42.410Z,101576.54
2023-05-06T10:11:11.766Z,101566.73
2023-05-06T10:13:42.467Z,101561.19
2023-05-06T10:16:14.569Z,101563.45
2023-05-06T10:18:46.262Z,101562.42
2023-05-06T10:21:22.317Z,101563.62
2023-05-06T10:24:12.059Z,101556.88
2023-05-06T10:26:43.425Z,101556.85
2023-05-06T10:29:14.948Z,101556.24
2023-05-06T10:31:55.994Z,101556.41
2023-05-06T10:34:26.867Z,101556.46
2023-05-06T10:36:58.227Z,101557.02
2023-05-06T10:39:27.162Z,101550.69
2023-05-06T10:42:00.117Z,101552.23
2023-05-06T10:45:10.763Z,101550.45
2023-05-06T10:48:09.547Z,101545.73
2023-05-06T10:50:38.456Z,101542.00
2023-05-06T10:53:07.273Z,101538.65
2023-05-06T10:55:40.418Z,101539.15
2023-05-06T10:58:12.330Z,101532.06
2023-05-06T11:00:41.745Z,101526.29
2023-05-06T11:03:14.268Z,101527.92
2023-05-06T11:05:55.015Z,101525.55
2023-05-06T11:08:26.122Z,101528.73
2023-05-06T11:10:55.183Z,101526.45
2023-05-06T11:13:27.955Z,101521.98
2023-05-06T11:15:59.118Z,101522.19
2023-05-06T11:18:32.382Z,101524.05
2023-05-06T11:21:01.411Z,101527.83
2023-05-06T11:23:42.666Z,101524.97
2023-05-06T11:26:14.361Z,101530.48
2023-05-06T11:28:49.142Z,101523.41
2023-05-06T11:31:18.709Z,101516.91
2023-05-06T11:33:49.257Z,101518.42
2023-05-06T11:36:21.565Z,101524.58
2023-05-06T11:38:53.481Z,101521.33
2023-05-06T11:41:23.756Z,101518.54
2023-05-06T11:43:54.634Z,101521.97
2023-05-06T11:46:25.234Z,101521.38
2023-05-06T11:48:56.479Z,101524.30
2023-05-06T11:51:25.748Z,101522.84
2023-05-06T11:54:13.439Z,101526.30
2023-05-06T11:57:08.341Z,101528.02
2023-05-06T11:59:41.127Z,101532.02
2023-05-06T12:02:15.286Z,101531.36
2023-05-06T12:04:46.663Z,101537.39
2023-05-06T12:07:16.437Z,101541.91
2023-05-06T12:09:50.358Z,101554.39
2023-05-06T12:12:23.494Z,101549.44
2023-05-06T12:14:53.795Z,101548.36
2023-05-06T12:17:22.809Z,101547.61
2023-05-06T12:19:51.242Z,101550.25
2023-05-06T12:22:21.886Z,101545.67
2023-05-06T12:24:50.948Z,101547.38
2023-05-06T12:27:39.893Z,101543.09
2023-05-06T12:30:09.695Z,101544.04
2023-05-06T12:32:59.212Z,101543.60
2023-05-06T12:35:32.565Z,101551.76
2023-05-06T12:38:15.804Z,101548.15
2023-05-06T12:40:46.089Z,101542.33
2023-05-06T12:43:15.027Z,101542.99
2023-05-06T12:45:44.072Z,101544.36
2023-05-06T12:48:16.938Z,101546.29
2023-05-06T12:50:45.617Z,101544.33
2023-05-06T12:53:13.790Z,101544.91
2023-05-06T12:55:42.559Z,101543.29
2023-05-06T12:58:23.658Z,101547.29
2023-05-06T13:00:52.073Z,101544.98
2023-05-06T13:03:20.632Z,101545.02
2023-05-06T13:05:50.557Z,101547.95
2023-05-06T13:08:19.470Z,101545.70
2023-05-06T13:10:48.011Z,101548.14
2023-05-06T13:13:17.015Z,101550.11
2023-05-06T13:15:45.692Z,101553.84
2023-05-06T13:18:14.096Z,101554.94
2023-05-06T13:20:42.610Z,101554.40
2023-05-06T13:23:10.983Z,101554.02
2023-05-06T13:25:51.770Z,101552.71
2023-05-06T13:28:30.560Z,101557.91
2023-05-06T13:30:59.171Z,101556.38
2023-05-06T13:33:27.599Z,101551.25
2023-05-06T13:35:56.381Z,101553.91
2023-05-06T13:38:24.951Z,101550.77
2023-05-06T13:40:54.832Z,101551.59
2023-05-06T13:43:26.080Z,101555.96
2023-05-06T13:45:54.507Z,101550.30
2023-05-06T13:48:22.933Z,101551.63
2023-05-06T13:50:51.690Z,101553.00
2023-05-06T13:53:20.801Z,101552.31
2023-05-06T13:55:49.214Z,101551.20
2023-05-06T13:58:17.729Z,101550.66
2023-05-06T14:00:47.212Z,101549.17
2023-05-06T14:03:15.449Z,101547.33
2023-05-06T14:05:45.256Z,101553.36
2023-05-06T14:08:14.630Z,101551.38
2023-05-06T14:10:43.374Z,101556.13
2023-05-06T14:13:12.302Z,101556.36
2023-05-06T14:15:41.720Z,101556.76
2023-05-06T14:18:10.411Z,101552.86
2023-05-06T14:20:38.813Z,101556.16
2023-05-06T14:23:07.191Z,101551.32
2023-05-06T14:25:35.692Z,101554.84
2023-05-06T14:28:04.273Z,101554.01
2023-05-06T14:30:34.600Z,101556.11
2023-05-06T14:33:04.402Z,101555.77
2023-05-06T14:35:33.361Z,101557.58
2023-05-06T14:38:02.382Z,101557.62
2023-05-06T14:40:31.096Z,101554.84
2023-05-06T14:42:59.722Z,101556.22
2023-05-06T14:45:28.822Z,101554.96
2023-05-06T14:47:59.961Z,101553.48
2023-05-06T14:50:28.791Z,101550.70
2023-05-06T14:52:57.647Z,101554.45
2023-05-06T14:55:26.274Z,101552.36
2023-05-06T14:57:54.869Z,101552.36
2023-05-06T15:00:23.550Z,101554.05
2023-05-06T15:02:52.069Z,101555.15
2023-05-06T15:05:20.811Z,101557.63
2023-05-06T15:07:49.828Z,101559.74
2023-05-06T15:10:18.465Z,101560.61
2023-05-06T15:12:46.687Z,101562.06
2023-05-06T15:15:14.979Z,101564.40
2023-05-06T15:17:43.401Z,101560.72
2023-05-06T15:20:12.749Z,101562.17
2023-05-06T15:22:41.076Z,101558.73
2023-05-06T15:25:16.642Z,101557.77
2023-05-06T15:27:51.317Z,101557.88
2023-05-06T15:30:19.926Z,101558.86
2023-05-06T15:32:49.354Z,101561.35
2023-05-06T15:35:17.756Z,101557.44
2023-05-06T15:37:46.465Z,101557.26
2023-05-06T15:40:15.408Z,101558.22
2023-05-06T15:42:44.029Z,101559.64
2023-05-06T15:45:13.333Z,101554.70
2023-05-06T15:47:42.177Z,101556.05
2023-05-06T15:50:21.316Z,101558.05
2023-05-06T15:53:02.603Z,101558.58
2023-05-06T15:55:35.306Z,101560.73
2023-05-06T15:58:12.079Z,101560.23
2023-05-06T16:00:40.705Z,101563.50
2023-05-06T16:03:12.039Z,101560.81
2023-05-06T16:05:41.211Z,101557.00
2023-05-06T16:08:09.788Z,101557.91
2023-05-06T16:10:38.265Z,101559.65
2023-05-06T16:13:06.991Z,101558.21
2023-05-06T16:15:36.420Z,101559.44
2023-05-06T16:18:05.271Z,101561.84
2023-05-06T16:20:34.846Z,101560.04
2023-05-06T16:23:03.442Z,101563.73
2023-05-06T16:25:31.990Z,101565.57
2023-05-06T16:28:00.770Z,101569.16
2023-05-06T16:30:32.002Z,101564.85
2023-05-06T16:33:00.523Z,101566.17
2023-05-06T16:35:29.048Z,101568.38
2023-05-06T16:37:59.708Z,101571.60
2023-05-06T16:40:28.109Z,101572.52
2023-05-06T16:42:56.488Z,101573.23
2023-05-06T16:45:26.692Z,101568.63
2023-05-06T16:47:55.424Z,101571.80
2023-05-06T16:50:24.187Z,101568.67
2023-05-06T16:52:54.509Z,101570.37
2023-05-06T16:55:23.003Z,101569.52
2023-05-06T16:57:51.450Z,101567.48
2023-05-06T17:00:19.914Z,101565.16
2023-05-06T17:02:48.526Z,101563.34
2023-05-06T17:05:18.234Z,101560.94
2023-05-06T17:07:48.454Z,101564.70
2023-05-06T17:10:17.096Z,101562.31
2023-05-06T17:12:45.661Z,101563.73
2023-05-06T17:15:14.413Z,101566.77
2023-05-06T17:17:42.804Z,101565.04
2023-05-06T17:20:11.650Z,101561.36
2023-05-06T17:22:40.995Z,101562.02
2023-05-06T17:25:09.762Z,101563.67
2023-05-06T17:27:38.235Z,101564.98
2023-05-06T17:30:09.939Z,101563.06
2023-05-06T17:32:39.104Z,101561.02
2023-05-06T17:35:08.244Z,101561.40
2023-05-06T17:37:36.770Z,101562.08
2023-05-06T17:40:07.593Z,101566.52
2023-05-06T17:42:36.565Z,101563.75
2023-05-06T17:45:05.976Z,101568.19
2023-05-06T17:47:36.383Z,101563.94
2023-05-06T17:50:05.169Z,101566.18
2023-05-06T17:52:33.662Z,101565.71
2023-05-06T17:55:15.492Z,101571.02
2023-05-06T17:57:45.721Z,101573.42
2023-05-06T18:00:15.165Z,101574.37
2023-05-06T18:02:44.094Z,101576.23
2023-05-06T18:05:13.645Z,101576.96
2023-05-06T18:07:42.525Z,101579.20
2023-05-06T18:10:11.475Z,101582.17
2023-05-06T18:12:39.943Z,101582.11
2023-05-06T18:15:09.036Z,101582.00
2023-05-06T18:17:38.154Z,101582.16
2023-05-06T18:20:13.609Z,101583.63
2023-05-06T18:22:43.221Z,101585.70
2023-05-06T18:25:12.303Z,101586.89
2023-05-06T18:27:40.928Z,101588.56
2023-05-06T18:30:12.534Z,101591.41
2023-05-06T18:32:41.049Z,101595.48
2023-05-06T18:35:11.357Z,101598.13
2023-05-06T18:37:40.281Z,101604.59
2023-05-06T18:40:12.409Z,101607.23
2023-05-06T18:42:40.651Z,101611.85
2023-05-06T18:45:09.466Z,101615.69
2023-05-06T18:47:38.415Z,101616.86
2023-05-06T18:50:08.581Z,101622.44
2023-05-06T18:52:38.071Z,101622.71
2023-05-06T18:55:07.802Z,101624.02
